Weather History for KDXX - November, 2013

Change the Weather History Date:

Saturday, November 9, 2013

  Actual Average (KAQP) Record (KAQP)
Temperature  
Mean Temperature 42 °F -  
Max Temperature 48 °F 40 °F 68 °F (1999)
Min Temperature 37 °F 23 °F 17 °F (2007)
Degree Days  
Heating Degree Days 22    
Moisture  
Dew Point 32 °F    
Average Humidity 63    
Maximum Humidity 87    
Minimum Humidity 43    
Precipitation  
Precipitation 0.00 in - - ()
Sea Level Pressure  
Sea Level Pressure 30.01 in    
Wind  
Wind Speed 17 mph (NW)    
Max Wind Speed 32 mph    
Max Gust Speed 44 mph    
Visibility 10 miles    
Events      
Averages and records for this station are not official NWS values.
T = Trace of Precipitation, MM = Missing Value Source: NWS Daily Summary

Daily Weather History Graph

Daily Weather History Graph

Search for Another Location

Airport or City:

Trip Planner

Search our weather history database for the weather conditions in past years. The results will help you decide how hot, cold, wet, or windy it might be!

Date:

Astronomy

Nov. 09, 2013 Rise Set
Actual Time 7:14 AM CST 5:02 PM CST
Civil Twilight 6:43 AM CST 5:33 PM CST
Nautical Twilight 6:08 AM CST 6:08 PM CST
Astronomical Twilight 5:33 AM CST 6:42 PM CST
Moon 12:49 PM CST (11/9) 11:37 PM CST (11/9)
Length of Visible Light 10h 50m
Length of Day
9h 47m
Waxing Crescent, 44% of the Moon is Illuminated
Nov 9
Waxing Crescent
Nov 9
First Quarter
Nov 17
Full
Nov 25
Last Quarter
Dec 2
New

Hourly Weather History & Observations

Time (CST) Temp. Windchill Dew Point Humidity Pressure Visibility Wind Dir Wind Speed Gust Speed Precip Events Conditions
12:13 AM 42.8 °F 38.0 °F 37.4 °F 81% 29.70 in 10.0 mi WSW 8.1 mph - N/A   Clear
12:33 AM 42.8 °F 38.6 °F 39.2 °F 87% 29.70 in 10.0 mi West 6.9 mph - N/A   Mostly Cloudy
12:54 AM 46.4 °F 41.1 °F 41.0 °F 81% 29.71 in 10.0 mi West 11.5 mph 17.3 mph N/A   Overcast
1:13 AM 46.4 °F 41.9 °F 41.0 °F 81% 29.71 in 10.0 mi West 9.2 mph - N/A   Overcast
1:34 AM 48.2 °F - 41.0 °F 76% 29.72 in 10.0 mi West 11.5 mph - N/A   Overcast
1:54 AM 48.2 °F - 41.0 °F 76% 29.73 in 10.0 mi West 13.8 mph 19.6 mph N/A   Overcast
2:13 AM 48.2 °F - 41.0 °F 76% 29.74 in 10.0 mi West 19.6 mph 25.3 mph N/A   Overcast
2:34 AM 48.2 °F - 41.0 °F 76% 29.75 in 10.0 mi West 17.3 mph 23.0 mph N/A   Overcast
2:54 AM 48.2 °F - 39.2 °F 71% 29.75 in 10.0 mi WNW 18.4 mph - N/A   Overcast
3:13 AM 48.2 °F - 39.2 °F 71% 29.76 in 10.0 mi West 19.6 mph - N/A   Overcast
3:34 AM 48.2 °F - 39.2 °F 71% 29.77 in 10.0 mi WNW 18.4 mph - N/A   Overcast
3:54 AM 48.2 °F - 39.2 °F 71% 29.77 in 10.0 mi WNW 20.7 mph 25.3 mph N/A   Overcast
4:13 AM 48.2 °F - 39.2 °F 71% 29.79 in 10.0 mi WNW 17.3 mph - N/A   Overcast
4:34 AM 48.2 °F - 39.2 °F 71% 29.79 in 10.0 mi WNW 15.0 mph 24.2 mph N/A   Overcast
4:54 AM 48.2 °F - 39.2 °F 71% 29.80 in 10.0 mi WNW 16.1 mph 21.9 mph N/A   Overcast
5:13 AM 46.4 °F 39.0 °F 37.4 °F 71% 29.82 in 10.0 mi NW 19.6 mph 31.1 mph N/A   Overcast
5:34 AM 46.4 °F 39.0 °F 37.4 °F 71% 29.83 in 10.0 mi WNW 19.6 mph 26.5 mph N/A   Overcast
5:53 AM 46.4 °F 39.5 °F 37.4 °F 71% 29.85 in 10.0 mi NW 17.3 mph - N/A   Overcast
6:14 AM 46.4 °F 39.8 °F 37.4 °F 71% 29.86 in 10.0 mi WNW 16.1 mph 26.5 mph N/A   Overcast
6:33 AM 46.4 °F 39.5 °F 37.4 °F 71% 29.87 in 10.0 mi WNW 17.3 mph 28.8 mph N/A   Overcast
6:53 AM 44.6 °F 37.2 °F 37.4 °F 76% 29.88 in 10.0 mi NW 17.3 mph 26.5 mph N/A   Overcast
7:14 AM 44.6 °F 36.4 °F 35.6 °F 71% 29.89 in 10.0 mi NW 20.7 mph 32.2 mph N/A   Overcast
7:33 AM 44.6 °F 36.6 °F 35.6 °F 71% 29.91 in 10.0 mi NW 19.6 mph 31.1 mph N/A   Overcast
7:54 AM 44.6 °F 35.9 °F 33.8 °F 66% 29.92 in 10.0 mi NW 23.0 mph 32.2 mph N/A   Scattered Clouds
8:14 AM 42.8 °F 34.0 °F 33.8 °F 70% 29.93 in 10.0 mi NW 20.7 mph 31.1 mph N/A   Scattered Clouds
8:33 AM 44.6 °F 37.2 °F 33.8 °F 66% 29.95 in 10.0 mi NW 17.3 mph 24.2 mph N/A   Mostly Cloudy
8:54 AM 44.6 °F 37.8 °F 35.6 °F 71% 29.96 in 10.0 mi NW 15.0 mph - N/A   Overcast
9:13 AM 44.6 °F 36.9 °F 33.8 °F 66% 29.97 in 10.0 mi NW 18.4 mph - N/A   Overcast
9:33 AM 44.6 °F 37.8 °F 33.8 °F 66% 29.98 in 10.0 mi NW 15.0 mph - N/A   Overcast
9:54 AM 44.6 °F 38.8 °F 35.6 °F 71% 29.98 in 10.0 mi NW 11.5 mph 21.9 mph N/A   Overcast
10:13 AM 44.6 °F 35.3 °F 32.0 °F 61% 29.99 in 10.0 mi WNW 26.5 mph 33.4 mph N/A   Overcast
10:33 AM 46.4 °F 39.0 °F 33.8 °F 62% 30.00 in 10.0 mi WNW 19.6 mph 29.9 mph N/A   Mostly Cloudy
10:54 AM 46.4 °F 37.5 °F 30.2 °F 53% 30.01 in 10.0 mi WNW 27.6 mph 39.1 mph N/A   Mostly Cloudy
11:13 AM 46.4 °F 37.5 °F 30.2 °F 53% 30.01 in 10.0 mi WNW 27.6 mph 39.1 mph N/A   Mostly Cloudy
11:34 AM 46.4 °F 36.9 °F 28.4 °F 50% 30.02 in 10.0 mi NW 32.2 mph 43.7 mph N/A   Scattered Clouds
11:54 AM 46.4 °F 37.9 °F 28.4 °F 50% 30.02 in 10.0 mi NW 25.3 mph 35.7 mph N/A   Scattered Clouds
12:13 PM 46.4 °F 37.9 °F 26.6 °F 46% 30.03 in 10.0 mi NW 25.3 mph 35.7 mph N/A   Scattered Clouds
12:34 PM 46.4 °F 38.1 °F 28.4 °F 50% 30.03 in 10.0 mi NW 24.2 mph 34.5 mph N/A   Scattered Clouds
12:53 PM 48.2 °F - 28.4 °F 46% 30.03 in 10.0 mi NW 26.5 mph 31.1 mph N/A   Scattered Clouds
1:14 PM 46.4 °F 38.7 °F 28.4 °F 50% 30.04 in 10.0 mi NW 20.7 mph 32.2 mph N/A   Overcast
1:33 PM 46.4 °F 37.7 °F 28.4 °F 50% 30.04 in 10.0 mi WNW 26.5 mph 35.7 mph N/A   Mostly Cloudy
1:54 PM 46.4 °F 38.1 °F 28.4 °F 50% 30.04 in 10.0 mi NW 24.2 mph 33.4 mph N/A   Scattered Clouds
2:14 PM 46.4 °F 37.5 °F 26.6 °F 46% 30.05 in 10.0 mi NW 27.6 mph 36.8 mph N/A   Scattered Clouds
2:33 PM 48.2 °F - 26.6 °F 43% 30.06 in 10.0 mi WNW 29.9 mph 34.5 mph N/A   Mostly Cloudy
2:54 PM 46.4 °F 37.2 °F 26.6 °F 46% 30.07 in 10.0 mi WNW 29.9 mph 38.0 mph N/A   Mostly Cloudy
3:14 PM 46.4 °F 37.5 °F 26.6 °F 46% 30.08 in 10.0 mi WNW 27.6 mph 33.4 mph N/A   Mostly Cloudy
3:33 PM 44.6 °F 36.4 °F 26.6 °F 49% 30.09 in 10.0 mi NW 20.7 mph 31.1 mph N/A   Mostly Cloudy
3:53 PM 46.4 °F 38.3 °F 26.6 °F 46% 30.10 in 10.0 mi NW 23.0 mph 34.5 mph N/A   Scattered Clouds
4:14 PM 44.6 °F 35.9 °F 26.6 °F 49% 30.11 in 10.0 mi NW 23.0 mph 34.5 mph N/A   Clear
4:33 PM 44.6 °F 36.4 °F 26.6 °F 49% 30.12 in 10.0 mi NW 20.7 mph 28.8 mph N/A   Clear
4:53 PM 42.8 °F 34.0 °F 26.6 °F 53% 30.14 in 10.0 mi NW 20.7 mph 29.9 mph N/A   Clear
5:14 PM 41.0 °F 32.8 °F 26.6 °F 57% 30.16 in 10.0 mi NW 16.1 mph 20.7 mph N/A   Clear
5:33 PM 39.2 °F 29.0 °F 26.6 °F 61% 30.17 in 10.0 mi NNW 21.9 mph 29.9 mph N/A   Clear
5:53 PM 39.2 °F 30.5 °F 26.6 °F 61% 30.19 in 10.0 mi NNW 16.1 mph 25.3 mph N/A   Scattered Clouds
6:14 PM 39.2 °F 29.8 °F 26.6 °F 61% 30.20 in 10.0 mi NNW 18.4 mph 24.2 mph N/A   Scattered Clouds
6:34 PM 39.2 °F 29.6 °F 26.6 °F 61% 30.20 in 10.0 mi NW 19.6 mph 27.6 mph N/A   Scattered Clouds
6:54 PM 37.4 °F 28.5 °F 26.6 °F 65% 30.21 in 10.0 mi NW 15.0 mph 21.9 mph N/A   Clear
7:13 PM 39.2 °F 30.8 °F 26.6 °F 61% 30.22 in 10.0 mi WNW 15.0 mph 19.6 mph N/A   Mostly Cloudy
7:34 PM 39.2 °F 30.8 °F 26.6 °F 61% 30.23 in 10.0 mi NW 15.0 mph - N/A   Overcast
7:53 PM 37.4 °F 28.9 °F 26.6 °F 65% 30.24 in 10.0 mi WNW 13.8 mph 18.4 mph N/A   Overcast
8:14 PM 37.4 °F 28.5 °F 26.6 °F 65% 30.24 in 10.0 mi NW 15.0 mph 20.7 mph N/A   Mostly Cloudy
8:34 PM 37.4 °F 28.5 °F 26.6 °F 65% 30.25 in 10.0 mi NW 15.0 mph - N/A   Overcast
8:53 PM 39.2 °F 31.2 °F 26.6 °F 61% 30.25 in 10.0 mi NW 13.8 mph - N/A   Overcast
9:14 PM 39.2 °F 30.8 °F 26.6 °F 61% 30.27 in 10.0 mi WNW 15.0 mph 19.6 mph N/A   Overcast
9:34 PM 39.2 °F 30.5 °F 26.6 °F 61% 30.27 in 10.0 mi WNW 16.1 mph 20.7 mph N/A   Overcast
9:53 PM 39.2 °F 30.8 °F 26.6 °F 61% 30.28 in 10.0 mi NW 15.0 mph 25.3 mph N/A   Overcast
10:14 PM 37.4 °F 28.2 °F 26.6 °F 65% 30.29 in 10.0 mi NW 16.1 mph 23.0 mph N/A   Overcast
10:33 PM 37.4 °F 27.5 °F 26.6 °F 65% 30.29 in 10.0 mi NW 18.4 mph 29.9 mph N/A   Overcast
10:54 PM 37.4 °F 28.9 °F 26.6 °F 65% 30.30 in 10.0 mi NW 13.8 mph 19.6 mph N/A   Overcast
11:13 PM 37.4 °F 28.9 °F 26.6 °F 65% 30.30 in 10.0 mi NW 13.8 mph - N/A   Overcast
11:33 PM 37.4 °F 29.8 °F 26.6 °F 65% 30.31 in 10.0 mi NW 11.5 mph 19.6 mph N/A   Overcast
11:54 PM 37.4 °F 29.3 °F 26.6 °F 65% 30.31 in 10.0 mi NW 12.7 mph 17.3 mph N/A   Overcast